Time,TemperatureF,DewpointF,PressureIn,WindDirection,WindDirectionDegrees,WindSpeedMPH,WindSpeedGustMPH,Humidity,HourlyPrecipIn,Conditions,Clouds,dailyrainin,SoftwareType,DateUTC
2013-02-11 00:10:00,20.8,8.0,30.26,WSW,237,0.0,4.0,57,0.00,,,0.00,weatherlink.com 1.10,2013-02-11 05:10:00,
2013-02-11 00:25:00,21.3,8.0,30.25,SE,138,0.0,2.0,58,0.00,,,0.00,weatherlink.com 1.10,2013-02-11 05:25:00,
2013-02-11 00:40:00,21.7,8.0,30.24,SW,230,0.0,5.0,56,0.00,,,0.00,weatherlink.com 1.10,2013-02-11 05:40:00,
2013-02-11 00:55:00,22.2,9.0,30.24,South,184,0.0,2.0,57,0.00,,,0.00,weatherlink.com 1.10,2013-02-11 05:55:00,
2013-02-11 01:10:00,22.1,9.0,30.24,SSE,163,1.0,2.0,58,0.00,,,0.00,weatherlink.com 1.10,2013-02-11 06:10:00,
2013-02-11 01:26:00,21.5,9.0,30.24,SSW,196,0.0,2.0,59,0.00,,,0.00,weatherlink.com 1.10,2013-02-11 06:26:00,
2013-02-11 01:40:00,21.2,9.0,30.24,ESE,123,1.0,3.0,59,0.00,,,0.00,weatherlink.com 1.10,2013-02-11 06:40:00,
2013-02-11 01:55:00,21.2,10.0,30.24,SE,137,0.0,2.0,62,0.00,,,0.00,weatherlink.com 1.10,2013-02-11 06:55:00,
2013-02-11 02:10:00,21.0,9.0,30.23,SSE,157,0.0,4.0,60,0.00,,,0.00,weatherlink.com 1.10,2013-02-11 07:10:00,
2013-02-11 02:25:00,20.8,10.0,30.21,SSE,148,0.0,4.0,62,0.00,,,0.00,weatherlink.com 1.10,2013-02-11 07:25:00,
2013-02-11 02:40:00,20.7,9.0,30.21,South,169,1.0,2.0,62,0.00,,,0.00,weatherlink.com 1.10,2013-02-11 07:40:00,
2013-02-11 02:55:00,20.8,10.0,30.18,SE,130,1.0,4.0,62,0.00,,,0.00,weatherlink.com 1.10,2013-02-11 07:55:00,
2013-02-11 03:11:00,21.0,10.0,30.17,WSW,248,1.0,3.0,63,0.00,,,0.00,weatherlink.com 1.10,2013-02-11 08:11:00,
2013-02-11 03:26:00,21.2,10.0,30.15,South,169,0.0,4.0,62,0.00,,,0.00,weatherlink.com 1.10,2013-02-11 08:26:00,
2013-02-11 03:41:00,21.2,10.0,30.14,SSE,157,0.0,5.0,63,0.00,,,0.00,weatherlink.com 1.10,2013-02-11 08:41:00,
2013-02-11 03:56:00,21.2,11.0,30.15,SSE,157,0.0,0.0,64,0.00,,,0.00,weatherlink.com 1.10,2013-02-11 08:56:00,
2013-02-11 04:11:00,21.6,11.0,30.14,SSE,152,0.0,3.0,63,0.00,,,0.00,weatherlink.com 1.10,2013-02-11 09:11:00,
2013-02-11 04:26:00,21.5,11.0,30.14,SE,135,0.0,2.0,64,0.00,,,0.00,weatherlink.com 1.10,2013-02-11 09:26:00,
2013-02-11 04:41:00,21.6,11.0,30.12,SSW,212,0.0,2.0,65,0.00,,,0.00,weatherlink.com 1.10,2013-02-11 09:41:00,
2013-02-11 04:56:00,23.3,14.0,30.10,South,179,0.0,8.0,67,0.00,,,0.00,weatherlink.com 1.10,2013-02-11 09:56:00,
2013-02-11 05:11:00,25.3,15.0,30.09,SSE,163,0.0,7.0,65,0.00,,,0.00,weatherlink.com 1.10,2013-02-11 10:11:00,
2013-02-11 05:26:00,26.1,15.0,30.08,SSE,164,0.0,5.0,63,0.00,,,0.00,weatherlink.com 1.10,2013-02-11 10:26:00,
2013-02-11 05:41:00,26.1,15.0,30.07,South,175,0.0,3.0,64,0.00,,,0.00,weatherlink.com 1.10,2013-02-11 10:41:00,
2013-02-11 05:56:00,27.2,16.0,30.05,SSE,150,1.0,10.0,64,0.00,,,0.00,weatherlink.com 1.10,2013-02-11 10:56:00,
2013-02-11 06:11:00,27.1,17.0,30.04,SW,215,2.0,7.0,65,0.00,,,0.00,weatherlink.com 1.10,2013-02-11 11:11:00,
2013-02-11 06:26:00,27.1,17.0,30.03,SSE,151,2.0,8.0,66,0.00,,,0.00,weatherlink.com 1.10,2013-02-11 11:26:00,
2013-02-11 06:41:00,28.4,19.0,30.03,ESE,114,5.0,9.0,67,0.00,,,0.00,weatherlink.com 1.10,2013-02-11 11:41:00,
2013-02-11 06:56:00,28.3,20.0,30.02,SE,134,4.0,8.0,70,0.00,,,0.00,weatherlink.com 1.10,2013-02-11 11:56:00,
2013-02-11 07:12:00,28.3,22.0,30.02,South,169,3.0,8.0,76,0.00,,,0.00,weatherlink.com 1.10,2013-02-11 12:12:00,
2013-02-11 07:26:00,26.9,22.0,30.02,WSW,238,1.0,6.0,82,0.00,,,0.00,weatherlink.com 1.10,2013-02-11 12:26:00,
2013-02-11 07:41:00,27.0,23.0,30.02,SSE,167,0.0,6.0,86,0.00,,,0.00,weatherlink.com 1.10,2013-02-11 12:41:00,
2013-02-11 07:57:00,27.2,24.0,30.02,South,170,0.0,3.0,88,0.00,,,0.00,weatherlink.com 1.10,2013-02-11 12:57:00,
2013-02-11 08:11:00,27.3,25.0,30.01,SSW,203,0.0,5.0,89,0.00,,,0.00,weatherlink.com 1.10,2013-02-11 13:11:00,
2013-02-11 08:27:00,27.5,25.0,29.98,SE,127,7.0,9.0,91,0.00,,,0.00,weatherlink.com 1.10,2013-02-11 13:27:00,
2013-02-11 08:41:00,28.1,26.0,29.98,South,177,1.0,4.0,91,0.00,,,0.00,weatherlink.com 1.10,2013-02-11 13:41:00,
2013-02-11 08:57:00,28.2,26.0,29.97,SSE,152,1.0,10.0,92,0.00,,,0.00,weatherlink.com 1.10,2013-02-11 13:57:00,
2013-02-11 09:12:00,28.5,27.0,29.97,South,178,0.0,5.0,92,0.00,,,0.00,weatherlink.com 1.10,2013-02-11 14:12:00,
2013-02-11 09:26:00,28.8,27.0,29.96,SE,140,1.0,5.0,92,0.00,,,0.00,weatherlink.com 1.10,2013-02-11 14:26:00,
2013-02-11 09:41:00,28.8,27.0,29.95,SE,137,0.0,2.0,92,0.00,,,0.00,weatherlink.com 1.10,2013-02-11 14:41:00,
2013-02-11 09:57:00,28.9,27.0,29.93,SE,137,0.0,4.0,93,0.00,,,0.00,weatherlink.com 1.10,2013-02-11 14:57:00,
2013-02-11 10:12:00,29.2,28.0,29.93,SE,137,0.0,1.0,93,0.00,,,0.00,weatherlink.com 1.10,2013-02-11 15:12:00,
2013-02-11 10:27:00,29.6,28.0,29.92,SSE,159,0.0,2.0,94,0.00,,,0.00,weatherlink.com 1.10,2013-02-11 15:27:00,
2013-02-11 10:42:00,29.7,28.0,29.91,SSE,159,0.0,1.0,94,0.00,,,0.00,weatherlink.com 1.10,2013-02-11 15:42:00,
2013-02-11 10:57:00,29.8,28.0,29.90,SE,140,1.0,4.0,94,0.00,,,0.00,weatherlink.com 1.10,2013-02-11 15:57:00,
2013-02-11 11:12:00,29.7,28.0,29.89,SE,140,0.0,1.0,94,0.00,,,0.00,weatherlink.com 1.10,2013-02-11 16:12:00,
2013-02-11 11:27:00,30.0,29.0,29.89,SE,140,0.0,1.0,94,0.00,,,0.00,weatherlink.com 1.10,2013-02-11 16:27:00,
2013-02-11 11:42:00,30.3,29.0,29.88,SE,136,0.0,2.0,94,0.00,,,0.00,weatherlink.com 1.10,2013-02-11 16:42:00,
2013-02-11 11:59:00,30.7,29.0,29.86,SE,136,2.0,3.0,94,0.00,,,0.00,weatherlink.com 1.10,2013-02-11 16:59:00,
2013-02-11 12:12:00,31.2,30.0,29.85,ESE,109,1.0,3.0,94,0.00,,,0.00,weatherlink.com 1.10,2013-02-11 17:12:00,
2013-02-11 12:27:00,31.5,30.0,29.84,SE,130,1.0,3.0,94,0.00,,,0.00,weatherlink.com 1.10,2013-02-11 17:27:00,
2013-02-11 12:42:00,32.1,31.0,29.82,SE,137,0.0,4.0,95,0.00,,,0.00,weatherlink.com 1.10,2013-02-11 17:42:00,
2013-02-11 12:57:00,32.8,32.0,29.81,SE,139,3.0,5.0,95,0.00,,,0.00,weatherlink.com 1.10,2013-02-11 17:57:00,
2013-02-11 13:12:00,33.1,32.0,29.80,SE,127,0.0,3.0,95,0.00,,,0.00,weatherlink.com 1.10,2013-02-11 18:12:00,
2013-02-11 13:27:00,34.5,33.0,29.79,SE,125,0.0,3.0,95,0.00,,,0.00,weatherlink.com 1.10,2013-02-11 18:27:00,
2013-02-11 13:42:00,36.7,35.0,29.78,SE,140,0.0,3.0,95,0.00,,,0.00,weatherlink.com 1.10,2013-02-11 18:42:00,
2013-02-11 13:57:00,36.9,35.0,29.78,ESE,112,5.0,7.0,92,0.00,,,0.00,weatherlink.com 1.10,2013-02-11 18:57:00,
2013-02-11 14:12:00,38.3,36.0,29.77,SE,130,2.0,7.0,92,0.00,,,0.00,weatherlink.com 1.10,2013-02-11 19:12:00,
2013-02-11 14:27:00,39.3,37.0,29.76,SSE,165,3.0,5.0,91,0.00,,,0.00,weatherlink.com 1.10,2013-02-11 19:27:00,
2013-02-11 14:42:00,40.2,38.0,29.75,SSE,160,0.0,5.0,90,0.01,,,0.01,weatherlink.com 1.10,2013-02-11 19:42:00,
2013-02-11 14:58:00,39.5,36.0,29.73,SSE,161,4.0,7.0,88,0.02,,,0.02,weatherlink.com 1.10,2013-02-11 19:58:00,
2013-02-11 15:13:00,39.7,37.0,29.73,SSE,148,1.0,7.0,90,0.04,,,0.04,weatherlink.com 1.10,2013-02-11 20:13:00,
2013-02-11 15:28:00,40.1,37.0,29.72,ESE,123,0.0,4.0,87,0.05,,,0.05,weatherlink.com 1.10,2013-02-11 20:28:00,
2013-02-11 15:43:00,39.8,37.0,29.70,SE,130,1.0,5.0,88,0.05,,,0.06,weatherlink.com 1.10,2013-02-11 20:43:00,
2013-02-11 15:58:00,39.5,37.0,29.70,SE,134,0.0,8.0,89,0.04,,,0.06,weatherlink.com 1.10,2013-02-11 20:58:00,
2013-02-11 16:13:00,39.6,37.0,29.69,SSE,155,3.0,4.0,89,0.03,,,0.07,weatherlink.com 1.10,2013-02-11 21:13:00,
2013-02-11 16:28:00,39.3,36.0,29.69,SE,138,0.0,2.0,89,0.02,,,0.07,weatherlink.com 1.10,2013-02-11 21:28:00,
2013-02-11 16:43:00,39.3,36.0,29.68,SSE,154,0.0,5.0,89,0.01,,,0.07,weatherlink.com 1.10,2013-02-11 21:43:00,
2013-02-11 16:58:00,38.5,36.0,29.69,SSE,154,0.0,1.0,90,0.01,,,0.07,weatherlink.com 1.10,2013-02-11 21:58:00,
2013-02-11 17:13:00,38.1,36.0,29.70,SSE,154,0.0,1.0,91,0.00,,,0.07,weatherlink.com 1.10,2013-02-11 22:13:00,
2013-02-11 17:28:00,38.0,36.0,29.70,SE,141,0.0,5.0,92,0.00,,,0.07,weatherlink.com 1.10,2013-02-11 22:28:00,
2013-02-11 17:43:00,38.1,36.0,29.70,ESE,115,0.0,4.0,92,0.01,,,0.08,weatherlink.com 1.10,2013-02-11 22:43:00,
2013-02-11 17:58:00,38.3,36.0,29.71,West,269,0.0,2.0,92,0.01,,,0.08,weatherlink.com 1.10,2013-02-11 22:58:00,
2013-02-11 18:13:00,38.6,37.0,29.72,WNW,287,0.0,3.0,95,0.02,,,0.09,weatherlink.com 1.10,2013-02-11 23:13:00,
2013-02-11 18:28:00,38.5,37.0,29.72,WSW,238,2.0,8.0,95,0.02,,,0.09,weatherlink.com 1.10,2013-02-11 23:28:00,
2013-02-11 18:44:00,38.1,37.0,29.75,WNW,282,4.0,13.0,95,0.02,,,0.10,weatherlink.com 1.10,2013-02-11 23:44:00,
2013-02-11 18:58:00,36.8,35.0,29.75,NNW,332,2.0,12.0,94,0.04,,,0.12,weatherlink.com 1.10,2013-02-11 23:58:00,
2013-02-11 19:13:00,35.4,34.0,29.77,NNW,329,1.0,10.0,94,0.04,,,0.13,weatherlink.com 1.10,2013-02-12 00:13:00,
2013-02-11 19:28:00,34.7,34.0,29.77,WNW,299,1.0,8.0,95,0.05,,,0.14,weatherlink.com 1.10,2013-02-12 00:28:00,
2013-02-11 19:43:00,34.5,33.0,29.76,WNW,290,4.0,8.0,95,0.04,,,0.14,weatherlink.com 1.10,2013-02-12 00:43:00,
2013-02-11 19:58:00,34.1,33.0,29.77,West,267,3.0,9.0,94,0.01,,,0.14,weatherlink.com 1.10,2013-02-12 00:58:00,
2013-02-11 20:13:00,33.7,32.0,29.77,NW,322,1.0,7.0,94,0.01,,,0.14,weatherlink.com 1.10,2013-02-12 01:13:00,
2013-02-11 20:28:00,33.7,32.0,29.77,West,269,2.0,8.0,94,0.00,,,0.14,weatherlink.com 1.10,2013-02-12 01:28:00,
2013-02-11 20:43:00,33.7,32.0,29.77,WNW,298,0.0,8.0,94,0.00,,,0.14,weatherlink.com 1.10,2013-02-12 01:43:00,
2013-02-11 20:58:00,33.4,32.0,29.77,West,266,3.0,4.0,94,0.00,,,0.14,weatherlink.com 1.10,2013-02-12 01:58:00,
2013-02-11 21:13:00,33.5,32.0,29.77,WNW,287,0.0,8.0,94,0.00,,,0.14,weatherlink.com 1.10,2013-02-12 02:13:00,
2013-02-11 21:28:00,33.6,32.0,29.76,NW,311,0.0,5.0,94,0.00,,,0.14,weatherlink.com 1.10,2013-02-12 02:28:00,
2013-02-11 21:43:00,33.5,32.0,29.77,WNW,299,0.0,5.0,93,0.00,,,0.14,weatherlink.com 1.10,2013-02-12 02:43:00,
2013-02-11 21:58:00,33.5,32.0,29.76,East,92,1.0,6.0,92,0.00,,,0.14,weatherlink.com 1.10,2013-02-12 02:58:00,
2013-02-11 22:13:00,33.3,32.0,29.76,West,260,0.0,1.0,93,0.00,,,0.14,weatherlink.com 1.10,2013-02-12 03:13:00,
2013-02-11 22:28:00,33.1,32.0,29.75,WNW,284,0.0,3.0,94,0.00,,,0.14,weatherlink.com 1.10,2013-02-12 03:28:00,
2013-02-11 22:43:00,33.1,31.0,29.75,WNW,300,1.0,9.0,93,0.00,,,0.14,weatherlink.com 1.10,2013-02-12 03:43:00,
2013-02-11 22:58:00,33.0,31.0,29.75,WNW,296,1.0,7.0,92,0.00,,,0.14,weatherlink.com 1.10,2013-02-12 03:58:00,
2013-02-11 23:13:00,32.9,30.0,29.74,WNW,285,3.0,7.0,90,0.00,,,0.14,weatherlink.com 1.10,2013-02-12 04:13:00,
2013-02-11 23:28:00,32.8,30.0,29.75,West,273,0.0,6.0,90,0.00,,,0.14,weatherlink.com 1.10,2013-02-12 04:28:00,
2013-02-11 23:43:00,32.8,30.0,29.75,WNW,302,2.0,7.0,89,0.00,,,0.14,weatherlink.com 1.10,2013-02-12 04:43:00,
2013-02-11 23:58:00,32.9,30.0,29.75,WNW,298,1.0,4.0,87,0.00,,,0.14,weatherlink.com 1.10,2013-02-12 04:58:00,